createdAt,value
2019-02-07T00:00:24.268Z,5.97
2019-02-07T00:02:51.226Z,6.00
2019-02-07T00:05:18.157Z,6.20
2019-02-07T00:07:45.131Z,5.50
2019-02-07T00:10:12.609Z,5.80
2019-02-07T00:12:39.743Z,5.70
2019-02-07T00:15:07.215Z,6.50
2019-02-07T00:17:34.365Z,5.93
2019-02-07T00:20:01.292Z,6.23
2019-02-07T00:22:28.252Z,5.53
2019-02-07T00:24:55.198Z,5.60
2019-02-07T00:27:22.153Z,5.90
2019-02-07T00:29:49.090Z,5.43
2019-02-07T00:32:16.051Z,6.27
2019-02-07T00:34:43.275Z,5.43
2019-02-07T00:37:10.233Z,6.00
2019-02-07T00:39:37.262Z,5.60
2019-02-07T00:42:04.225Z,5.50
2019-02-07T00:44:31.171Z,5.43
2019-02-07T00:46:58.137Z,5.40
2019-02-07T00:49:25.062Z,4.70
2019-02-07T00:51:52.412Z,4.93
2019-02-07T00:54:19.349Z,5.00
2019-02-07T00:56:46.305Z,4.77
2019-02-07T00:59:13.345Z,4.90
2019-02-07T01:01:40.257Z,5.03
2019-02-07T01:04:07.211Z,4.43
2019-02-07T01:06:34.171Z,5.00
2019-02-07T01:09:01.157Z,4.60
2019-02-07T01:11:28.476Z,5.23
2019-02-07T01:13:55.446Z,4.63
2019-02-07T01:16:22.462Z,4.93
2019-02-07T01:18:49.466Z,5.00
2019-02-07T01:21:16.391Z,5.13
2019-02-07T01:23:43.384Z,5.50
2019-02-07T01:26:10.435Z,5.43
2019-02-07T01:28:37.802Z,6.13
2019-02-07T01:31:04.734Z,5.40
2019-02-07T01:33:31.721Z,5.70
2019-02-07T01:35:58.684Z,6.00
2019-02-07T01:38:25.690Z,5.10
2019-02-07T01:40:52.634Z,5.50
2019-02-07T01:43:19.622Z,4.70
2019-02-07T01:45:46.553Z,6.07
2019-02-07T01:48:13.930Z,5.00
2019-02-07T01:50:40.866Z,5.00
2019-02-07T01:53:08.244Z,5.43
2019-02-07T01:55:35.199Z,5.10
2019-02-07T01:58:02.370Z,4.73
2019-02-07T02:00:29.275Z,4.97
2019-02-07T02:02:56.272Z,4.83
2019-02-07T02:05:23.215Z,4.97
2019-02-07T02:07:50.507Z,5.20
2019-02-07T02:10:19.874Z,5.00
2019-02-07T02:12:46.891Z,4.83
2019-02-07T02:15:24.071Z,4.90
2019-02-07T02:17:46.616Z,4.57
2019-02-07T02:20:14.431Z,5.17
2019-02-07T02:22:41.697Z,5.60
2019-02-07T02:25:09.446Z,5.67
2019-02-07T02:27:36.441Z,5.13
2019-02-07T02:30:06.937Z,4.90
2019-02-07T02:32:33.964Z,4.90
2019-02-07T02:35:00.900Z,5.73
2019-02-07T02:37:27.875Z,5.00
2019-02-07T02:39:55.152Z,4.83
2019-02-07T02:42:22.202Z,5.00
2019-02-07T02:44:49.139Z,5.73
2019-02-07T02:47:16.144Z,5.23
2019-02-07T02:49:43.088Z,4.73
2019-02-07T02:52:10.034Z,5.70
2019-02-07T02:54:43.768Z,5.23
2019-02-07T02:57:11.005Z,4.90
2019-02-07T02:59:37.982Z,5.20
2019-02-07T03:02:21.647Z,5.60
2019-02-07T03:04:54.902Z,5.70
2019-02-07T03:07:33.930Z,5.03
2019-02-07T03:10:30.170Z,5.30
2019-02-07T03:13:28.631Z,5.30
2019-02-07T03:16:14.116Z,5.20
2019-02-07T03:19:09.827Z,6.10
2019-02-07T03:21:59.143Z,5.30
2019-02-07T03:24:44.473Z,5.77
2019-02-07T03:27:49.689Z,5.47
2019-02-07T03:30:36.224Z,5.50
2019-02-07T03:33:31.877Z,6.17
2019-02-07T03:36:06.323Z,5.60
2019-02-07T03:39:02.179Z,6.87
2019-02-07T03:41:45.727Z,6.67
2019-02-07T03:44:35.498Z,6.33
2019-02-07T03:47:33.066Z,6.27
2019-02-07T03:50:14.980Z,5.50
2019-02-07T03:52:52.767Z,5.50
2019-02-07T03:55:39.353Z,6.17
2019-02-07T03:58:35.030Z,7.27
2019-02-07T04:01:21.572Z,6.60
2019-02-07T04:04:00.067Z,6.77
2019-02-07T04:06:42.659Z,6.70
2019-02-07T04:09:24.106Z,7.00
2019-02-07T04:12:16.693Z,8.07
2019-02-07T04:15:05.632Z,6.87
2019-02-07T04:17:44.433Z,6.90
2019-02-07T04:20:34.044Z,6.33
2019-02-07T04:23:26.632Z,6.43
2019-02-07T04:26:11.874Z,7.67
2019-02-07T04:28:57.457Z,8.33
2019-02-07T04:31:46.543Z,6.20
2019-02-07T04:34:33.120Z,7.77
2019-02-07T04:37:20.053Z,6.80
2019-02-07T04:40:05.709Z,7.63
2019-02-07T04:42:52.240Z,6.70
2019-02-07T04:45:30.611Z,7.40
2019-02-07T04:48:15.675Z,7.00
2019-02-07T04:51:01.364Z,7.00
2019-02-07T04:53:44.879Z,6.57
2019-02-07T04:56:43.452Z,8.00
2019-02-07T04:59:23.201Z,7.57
2019-02-07T05:02:08.356Z,6.30
2019-02-07T05:04:54.664Z,6.83
2019-02-07T05:07:56.380Z,7.00
2019-02-07T05:10:41.593Z,7.50
2019-02-07T05:13:26.753Z,6.90
2019-02-07T05:16:16.382Z,7.33
2019-02-07T05:19:21.063Z,6.87
2019-02-07T05:22:13.699Z,7.47
2019-02-07T05:24:48.403Z,8.00
2019-02-07T05:27:35.108Z,6.93
2019-02-07T05:30:26.986Z,7.17
2019-02-07T05:33:16.375Z,7.30
2019-02-07T05:36:01.460Z,8.60
2019-02-07T05:39:06.082Z,6.60
2019-02-07T05:41:52.647Z,7.70
2019-02-07T05:44:45.139Z,6.50
2019-02-07T05:47:40.599Z,7.90
2019-02-07T05:50:27.522Z,7.30
2019-02-07T05:53:19.856Z,7.67
2019-02-07T05:55:57.461Z,7.20
2019-02-07T05:58:44.009Z,7.53
2019-02-07T06:01:39.379Z,7.80
2019-02-07T06:04:37.943Z,7.90
2019-02-07T06:07:23.194Z,7.07
2019-02-07T06:10:15.918Z,7.30
2019-02-07T06:13:06.156Z,6.97
2019-02-07T06:16:08.085Z,5.80
2019-02-07T06:18:53.324Z,7.10
2019-02-07T06:21:29.885Z,5.73
2019-02-07T06:24:31.833Z,5.33
2019-02-07T06:27:24.488Z,5.40
2019-02-07T06:30:09.731Z,5.00
2019-02-07T06:32:54.540Z,4.97
2019-02-07T06:35:30.873Z,4.67
2019-02-07T06:38:04.639Z,5.60
2019-02-07T06:40:50.110Z,5.37
2019-02-07T06:43:32.096Z,5.43
2019-02-07T06:46:15.960Z,5.47
2019-02-07T06:49:01.218Z,6.10
2019-02-07T06:51:48.043Z,5.47
2019-02-07T06:54:26.941Z,5.47
2019-02-07T06:57:13.602Z,6.00
2019-02-07T06:59:59.007Z,5.87
2019-02-07T07:02:34.181Z,5.93
2019-02-07T07:05:27.472Z,5.40
2019-02-07T07:08:05.466Z,5.57
2019-02-07T07:10:57.592Z,5.03
2019-02-07T07:13:35.314Z,5.70
2019-02-07T07:16:26.959Z,5.50
2019-02-07T07:19:12.462Z,6.50
2019-02-07T07:21:57.977Z,5.27
2019-02-07T07:24:44.584Z,5.70
2019-02-07T07:27:27.628Z,5.97
2019-02-07T07:30:08.133Z,7.83
2019-02-07T07:32:57.298Z,7.50
2019-02-07T07:35:52.921Z,5.53
2019-02-07T07:38:39.899Z,5.80
2019-02-07T07:41:32.622Z,5.90
2019-02-07T07:44:31.287Z,6.87
2019-02-07T07:47:35.521Z,5.90
2019-02-07T07:50:28.822Z,6.50
2019-02-07T07:53:16.286Z,6.43
2019-02-07T07:55:54.770Z,7.10
2019-02-07T07:58:40.119Z,7.20
2019-02-07T08:01:28.187Z,6.43
2019-02-07T08:04:13.387Z,7.00
2019-02-07T08:07:05.695Z,6.27
2019-02-07T08:09:50.712Z,7.70
2019-02-07T08:12:37.270Z,7.73
2019-02-07T08:15:41.387Z,7.77
2019-02-07T08:18:23.561Z,7.37
2019-02-07T08:21:12.899Z,7.00
2019-02-07T08:23:58.709Z,7.67
2019-02-07T08:27:03.344Z,8.10
2019-02-07T08:29:48.094Z,8.07
2019-02-07T08:32:37.568Z,8.10
2019-02-07T08:35:19.662Z,7.63
2019-02-07T08:38:02.229Z,8.90
2019-02-07T08:40:37.812Z,8.17
2019-02-07T08:43:20.908Z,7.60
2019-02-07T08:46:19.516Z,10.03
2019-02-07T08:49:13.510Z,8.90
2019-02-07T08:51:59.153Z,8.50
2019-02-07T08:54:47.533Z,8.23
2019-02-07T08:57:36.873Z,8.00
2019-02-07T09:00:33.271Z,8.83
2019-02-07T09:03:11.132Z,8.37
2019-02-07T09:06:01.124Z,8.83
2019-02-07T09:08:45.030Z,7.70
2019-02-07T09:11:30.403Z,8.63
2019-02-07T09:14:15.303Z,8.43
2019-02-07T09:16:58.738Z,7.97
2019-02-07T09:19:47.177Z,8.60
2019-02-07T09:22:39.315Z,9.10
2019-02-07T09:25:24.572Z,8.63
2019-02-07T09:28:09.666Z,8.63
2019-02-07T09:31:01.820Z,9.60
2019-02-07T09:33:48.368Z,8.67
2019-02-07T09:36:39.139Z,8.75
2019-02-07T09:39:25.976Z,9.07
2019-02-07T09:42:05.389Z,7.60
2019-02-07T09:44:55.643Z,9.10
2019-02-07T09:47:41.060Z,8.33
2019-02-07T09:50:18.670Z,8.65
2019-02-07T09:53:24.247Z,8.00
2019-02-07T09:56:19.544Z,9.33
2019-02-07T09:59:15.194Z,8.30
2019-02-07T10:01:52.960Z,8.77
2019-02-07T10:04:45.543Z,8.43
2019-02-07T10:07:23.295Z,7.77
2019-02-07T10:10:15.581Z,7.47
2019-02-07T10:13:20.285Z,7.13
2019-02-07T10:16:06.347Z,6.70
2019-02-07T10:18:48.909Z,6.30
2019-02-07T10:21:44.817Z,5.90
2019-02-07T10:24:46.308Z,6.17
2019-02-07T10:27:35.806Z,6.27
2019-02-07T10:30:30.051Z,5.30
2019-02-07T10:33:25.682Z,5.60
2019-02-07T10:36:05.559Z,5.63
2019-02-07T10:38:40.039Z,4.90
2019-02-07T10:41:24.633Z,5.23
2019-02-07T10:44:10.114Z,6.00
2019-02-07T10:46:55.858Z,5.70
2019-02-07T10:49:40.205Z,6.37
2019-02-07T10:52:28.102Z,6.43
2019-02-07T10:55:13.149Z,6.73
2019-02-07T10:58:07.127Z,6.83
2019-02-07T11:00:52.254Z,6.97
2019-02-07T11:03:38.948Z,6.63
2019-02-07T11:06:19.343Z,6.73
2019-02-07T11:09:05.987Z,5.80
2019-02-07T11:11:51.075Z,6.00
2019-02-07T11:14:36.462Z,7.47
2019-02-07T11:17:38.423Z,6.30
2019-02-07T11:20:26.622Z,7.10
2019-02-07T11:23:18.867Z,5.50
2019-02-07T11:26:22.363Z,5.70
2019-02-07T11:29:07.602Z,6.03
2019-02-07T11:31:48.465Z,5.57
2019-02-07T11:34:50.553Z,5.70
2019-02-07T11:37:43.433Z,5.87
2019-02-07T11:40:36.593Z,6.10
2019-02-07T11:43:23.571Z,6.33
2019-02-07T11:46:10.147Z,5.90
2019-02-07T11:49:06.576Z,5.93
2019-02-07T11:51:41.266Z,5.17
2019-02-07T11:54:16.951Z,4.80
2019-02-07T11:57:02.361Z,4.27
2019-02-07T11:59:51.739Z,4.60
2019-02-07T12:02:38.367Z,4.83
2019-02-07T12:05:17.397Z,3.20
2019-02-07T12:07:53.705Z,3.90
2019-02-07T12:10:47.550Z,3.95
2019-02-07T12:13:42.576Z,5.50
2019-02-07T12:16:31.928Z,4.43
2019-02-07T12:19:18.408Z,3.37
2019-02-07T12:22:03.362Z,3.80
2019-02-07T12:25:01.608Z,4.43
2019-02-07T12:27:47.330Z,2.93
2019-02-07T12:30:29.391Z,2.90
2019-02-07T12:33:31.635Z,3.65
2019-02-07T12:36:24.808Z,3.27
2019-02-07T12:39:07.659Z,3.00
2019-02-07T12:41:50.838Z,3.70
2019-02-07T12:44:55.593Z,2.93
2019-02-07T12:47:48.037Z,2.83
2019-02-07T12:50:40.769Z,4.17
2019-02-07T12:53:27.982Z,2.83
2019-02-07T12:56:20.526Z,3.00
2019-02-07T12:59:06.452Z,2.13
2019-02-07T13:01:51.406Z,2.70
2019-02-07T13:04:37.165Z,3.23
2019-02-07T13:07:32.739Z,3.00
2019-02-07T13:10:07.977Z,3.80
2019-02-07T13:12:53.683Z,3.17
2019-02-07T13:15:49.460Z,2.20
2019-02-07T13:18:36.325Z,2.45
2019-02-07T13:21:19.184Z,3.20
2019-02-07T13:24:09.015Z,2.70
2019-02-07T13:26:54.492Z,3.27
2019-02-07T13:29:34.226Z,3.30
2019-02-07T13:32:20.088Z,3.47
2019-02-07T13:35:19.753Z,3.33
2019-02-07T13:38:00.762Z,2.80
2019-02-07T13:40:50.589Z,3.33
2019-02-07T13:43:30.000Z,4.50
2019-02-07T13:46:06.587Z,3.90
2019-02-07T13:48:56.189Z,3.50
2019-02-07T13:52:01.267Z,3.70
2019-02-07T13:54:46.648Z,4.00
2019-02-07T13:57:41.972Z,3.67
2019-02-07T14:00:39.424Z,3.13
2019-02-07T14:03:22.144Z,3.30
2019-02-07T14:06:07.597Z,4.30
2019-02-07T14:08:52.623Z,3.97
2019-02-07T14:11:30.242Z,3.17
2019-02-07T14:14:19.516Z,4.07
2019-02-07T14:17:18.395Z,5.07
2019-02-07T14:20:05.491Z,3.40
2019-02-07T14:22:50.712Z,4.30
2019-02-07T14:25:49.022Z,3.10
2019-02-07T14:28:44.466Z,3.33
2019-02-07T14:31:21.132Z,4.15
2019-02-07T14:34:13.668Z,3.70
2019-02-07T14:36:58.539Z,3.37
2019-02-07T14:39:45.560Z,3.20
2019-02-07T14:42:31.553Z,3.70
2019-02-07T14:45:16.944Z,2.67
2019-02-07T14:47:43.922Z,2.80
2019-02-07T14:50:15.055Z,3.63
2019-02-07T14:52:40.265Z,3.27
2019-02-07T14:55:09.109Z,3.50
2019-02-07T14:57:36.614Z,2.70
2019-02-07T15:00:07.377Z,3.43
2019-02-07T15:02:34.354Z,2.63
2019-02-07T15:05:01.290Z,3.73
2019-02-07T15:07:28.296Z,3.40
2019-02-07T15:09:55.212Z,2.70
2019-02-07T15:12:22.152Z,2.55
2019-02-07T15:14:49.069Z,3.30
2019-02-07T15:17:16.070Z,3.00
2019-02-07T15:19:43.005Z,2.37
2019-02-07T15:22:09.930Z,3.50
2019-02-07T15:24:36.847Z,3.45
2019-02-07T15:27:03.892Z,2.90
2019-02-07T15:29:30.821Z,3.75
2019-02-07T15:31:57.832Z,2.17
2019-02-07T15:34:25.168Z,2.20
2019-02-07T15:36:53.270Z,2.70
2019-02-07T15:39:20.195Z,2.07
2019-02-07T15:41:47.468Z,2.47
2019-02-07T15:44:14.385Z,3.00
2019-02-07T15:46:41.362Z,2.13
2019-02-07T15:49:08.506Z,3.00
2019-02-07T15:51:35.442Z,2.13
2019-02-07T15:54:03.008Z,2.30
2019-02-07T15:56:29.939Z,3.00
2019-02-07T15:59:14.346Z,2.60
2019-02-07T16:01:49.138Z,2.83
2019-02-07T16:04:18.800Z,2.97
2019-02-07T16:06:45.776Z,2.47
2019-02-07T16:09:14.284Z,2.20
2019-02-07T16:11:41.248Z,2.93
2019-02-07T16:14:08.284Z,2.67
2019-02-07T16:16:35.255Z,2.50
2019-02-07T16:19:02.236Z,2.90
2019-02-07T16:21:29.170Z,1.60
2019-02-07T16:23:56.104Z,2.53
2019-02-07T16:26:23.038Z,2.40
2019-02-07T16:28:49.979Z,2.60
2019-02-07T16:31:16.883Z,2.20
2019-02-07T16:33:43.847Z,2.50
2019-02-07T16:36:10.782Z,2.57
2019-02-07T16:38:37.753Z,1.63
2019-02-07T16:41:05.093Z,2.77
2019-02-07T16:43:32.174Z,2.00
2019-02-07T16:45:59.105Z,2.10
2019-02-07T16:48:26.066Z,2.17
2019-02-07T16:51:00.313Z,2.37
2019-02-07T16:53:23.420Z,2.83
2019-02-07T16:55:50.333Z,2.47
2019-02-07T16:58:17.675Z,3.57
2019-02-07T17:00:44.640Z,2.33
2019-02-07T17:03:11.591Z,2.23
2019-02-07T17:05:38.633Z,1.70
2019-02-07T17:08:05.738Z,2.40
2019-02-07T17:10:33.321Z,1.80
2019-02-07T17:13:00.323Z,2.47
2019-02-07T17:15:27.379Z,2.43
2019-02-07T17:17:54.676Z,2.17
2019-02-07T17:20:25.116Z,2.57
2019-02-07T17:22:52.069Z,2.63
2019-02-07T17:25:22.642Z,2.87
2019-02-07T17:27:49.933Z,2.43
2019-02-07T17:30:17.512Z,2.10
2019-02-07T17:32:44.969Z,3.77
2019-02-07T17:35:12.600Z,2.70
2019-02-07T17:37:39.562Z,1.80
2019-02-07T17:40:10.520Z,2.20
2019-02-07T17:42:37.531Z,2.77
2019-02-07T17:45:05.973Z,2.00
2019-02-07T17:47:32.965Z,1.90
2019-02-07T17:50:00.048Z,1.60
2019-02-07T17:52:27.664Z,2.10
2019-02-07T17:54:54.618Z,1.93
2019-02-07T17:57:21.586Z,1.90
2019-02-07T17:59:48.549Z,1.55
2019-02-07T18:02:15.498Z,1.40
2019-02-07T18:04:44.189Z,1.90
2019-02-07T18:07:11.315Z,1.40
2019-02-07T18:09:38.496Z,1.97
2019-02-07T18:12:05.427Z,1.33
2019-02-07T18:14:32.367Z,1.33
2019-02-07T18:16:59.275Z,1.07
2019-02-07T18:19:26.245Z,2.40
2019-02-07T18:21:53.228Z,1.30
2019-02-07T18:24:20.481Z,1.30
2019-02-07T18:26:47.569Z,2.30
2019-02-07T18:29:14.825Z,2.27
2019-02-07T18:31:41.787Z,2.00
2019-02-07T18:34:08.775Z,2.47
2019-02-07T18:36:35.691Z,1.60
2019-02-07T18:39:04.849Z,2.30
2019-02-07T18:41:31.818Z,2.17
2019-02-07T18:43:58.792Z,2.70
2019-02-07T18:46:26.149Z,2.33
2019-02-07T18:48:53.137Z,2.90
2019-02-07T18:51:20.185Z,2.00
2019-02-07T18:53:47.129Z,2.60
2019-02-07T18:56:14.106Z,4.00
2019-02-07T18:58:41.043Z,3.50
2019-02-07T19:01:07.995Z,2.95
2019-02-07T19:03:34.987Z,1.85
2019-02-07T19:06:02.270Z,1.90
2019-02-07T19:08:29.458Z,2.07
2019-02-07T19:10:56.473Z,1.73
2019-02-07T19:13:23.498Z,3.35
2019-02-07T19:15:54.008Z,1.60
2019-02-07T19:18:20.918Z,2.80
2019-02-07T19:20:47.918Z,2.10
2019-02-07T19:23:14.857Z,2.00
2019-02-07T19:25:41.915Z,1.90
2019-02-07T19:28:08.918Z,1.70
2019-02-07T19:30:35.970Z,2.20
2019-02-07T19:33:03.403Z,2.33
2019-02-07T19:35:30.471Z,1.87
2019-02-07T19:37:57.698Z,1.77
2019-02-07T19:40:25.075Z,1.73
2019-02-07T19:42:52.519Z,2.10
2019-02-07T19:45:19.946Z,2.10
2019-02-07T19:47:46.874Z,2.77
2019-02-07T19:50:16.450Z,2.37
2019-02-07T19:52:43.589Z,2.70
2019-02-07T19:55:13.183Z,1.80
2019-02-07T19:57:40.243Z,2.13
2019-02-07T20:00:10.809Z,1.70
2019-02-07T20:02:37.766Z,2.03
2019-02-07T20:05:06.117Z,2.47
2019-02-07T20:07:33.062Z,2.43
2019-02-07T20:10:00.181Z,2.33
2019-02-07T20:12:27.224Z,2.13
2019-02-07T20:14:54.306Z,1.77
2019-02-07T20:17:21.257Z,2.13
2019-02-07T20:19:48.587Z,1.97
2019-02-07T20:22:20.352Z,2.10
2019-02-07T20:24:46.316Z,1.67
2019-02-07T20:27:13.321Z,2.47
2019-02-07T20:29:40.295Z,1.90
2019-02-07T20:32:07.260Z,2.10
2019-02-07T20:34:34.226Z,2.47
2019-02-07T20:37:01.664Z,1.85
2019-02-07T20:39:29.475Z,2.50
2019-02-07T20:41:56.578Z,2.17
2019-02-07T20:44:23.531Z,3.93
2019-02-07T20:46:50.543Z,2.23
2019-02-07T20:49:17.482Z,2.10
2019-02-07T20:51:44.510Z,2.20
2019-02-07T20:54:11.529Z,1.70
2019-02-07T20:56:38.497Z,2.00
2019-02-07T20:59:05.513Z,2.00
2019-02-07T21:01:32.762Z,2.90
2019-02-07T21:03:59.682Z,1.93
2019-02-07T21:06:26.691Z,2.40
2019-02-07T21:08:53.604Z,1.60
2019-02-07T21:11:20.720Z,1.50
2019-02-07T21:13:47.834Z,2.00
2019-02-07T21:16:14.765Z,2.00
2019-02-07T21:18:41.722Z,1.93
2019-02-07T21:21:09.749Z,1.90
2019-02-07T21:23:36.694Z,1.75
2019-02-07T21:26:03.742Z,1.60
2019-02-07T21:28:30.803Z,1.15
2019-02-07T21:30:57.862Z,1.90
2019-02-07T21:33:24.808Z,1.95
2019-02-07T21:35:51.760Z,2.45
2019-02-07T21:38:18.747Z,1.75
2019-02-07T21:40:45.705Z,2.07
2019-02-07T21:43:12.890Z,1.70
2019-02-07T21:45:39.797Z,1.60
2019-02-07T21:48:11.832Z,1.75
2019-02-07T21:50:38.949Z,1.73
2019-02-07T21:53:05.996Z,1.63
2019-02-07T21:55:32.945Z,1.63
2019-02-07T21:58:02.698Z,1.50
2019-02-07T22:00:35.233Z,2.10
2019-02-07T22:03:05.456Z,1.67
2019-02-07T22:05:32.526Z,2.57
2019-02-07T22:08:02.153Z,2.10
2019-02-07T22:10:29.105Z,1.60
2019-02-07T22:12:56.498Z,2.13
2019-02-07T22:15:24.018Z,2.05
2019-02-07T22:17:50.911Z,2.23
2019-02-07T22:20:19.642Z,2.00
2019-02-07T22:22:49.213Z,2.13
2019-02-07T22:25:17.004Z,2.00
2019-02-07T22:27:44.056Z,1.60
2019-02-07T22:30:20.966Z,2.73
2019-02-07T22:32:48.272Z,1.70
2019-02-07T22:35:15.355Z,1.50
2019-02-07T22:37:42.298Z,1.73
2019-02-07T22:40:12.559Z,2.03
2019-02-07T22:42:39.470Z,1.93
2019-02-07T22:45:07.873Z,2.20
2019-02-07T22:47:34.853Z,1.50
2019-02-07T22:50:02.512Z,2.80
2019-02-07T22:52:29.573Z,1.90
2019-02-07T22:54:56.543Z,1.93
2019-02-07T22:57:23.480Z,1.60
2019-02-07T22:59:50.546Z,1.83
2019-02-07T23:02:17.529Z,2.17
2019-02-07T23:04:44.487Z,1.93
2019-02-07T23:07:11.445Z,1.37
2019-02-07T23:09:38.392Z,1.90
2019-02-07T23:12:05.721Z,1.30
2019-02-07T23:14:32.668Z,1.10
2019-02-07T23:16:59.586Z,1.60
2019-02-07T23:19:26.579Z,1.55
2019-02-07T23:21:53.525Z,1.17
2019-02-07T23:24:20.508Z,1.90
2019-02-07T23:26:48.576Z,1.40
2019-02-07T23:29:15.554Z,1.60
2019-02-07T23:31:42.879Z,1.60
2019-02-07T23:34:09.844Z,1.75
2019-02-07T23:36:37.426Z,1.40
2019-02-07T23:39:07.565Z,1.80
2019-02-07T23:41:34.559Z,2.20
2019-02-07T23:44:01.837Z,1.70
2019-02-07T23:46:28.843Z,1.80
2019-02-07T23:48:55.772Z,1.95
2019-02-07T23:51:25.995Z,2.20
2019-02-07T23:53:53.005Z,2.20
2019-02-07T23:56:20.081Z,2.17
2019-02-07T23:58:47.033Z,2.23
